Time;durP1;ratioP1;P1;durP2;ratioP2;P2;SDS_P1;SDS_P2;PMS_P1;PMS_P2;Temp;Humidity;BMP_temperature;BMP_pressure;BME280_temperature;BME280_humidity;BME280_pressure;Samples;Min_cycle;Max_cycle;Signal;HPM_P1;HPM_P2
2021/06/01 00:01:20;;;;;;;3.13;2.83;;;11.40;99.90;;;;;;5071914;28;20471;-55
2021/06/01 00:03:46;;;;;;;3.90;2.23;;;11.30;99.90;;;;;;5071602;28;20254;-56
2021/06/01 00:06:14;;;;;;;2.83;2.60;;;11.30;99.90;;;;;;5071288;28;20254;-58
2021/06/01 00:08:41;;;;;;;4.27;3.10;;;11.30;99.90;;;;;;5071573;28;20204;-55
2021/06/01 00:11:08;;;;;;;3.40;2.70;;;11.20;99.90;;;;;;5071579;28;20209;-55
2021/06/01 00:13:34;;;;;;;4.20;2.47;;;11.20;99.90;;;;;;5071275;28;20205;-55
2021/06/01 00:16:00;;;;;;;3.37;3.00;;;11.10;99.90;;;;;;5070974;28;20759;-56
2021/06/01 00:18:27;;;;;;;5.00;2.77;;;11.10;99.90;;;;;;5070952;28;20251;-56
2021/06/01 00:20:53;;;;;;;3.03;2.70;;;11.00;99.90;;;;;;5070908;28;20235;-56
2021/06/01 00:23:21;;;;;;;3.77;3.00;;;11.00;99.90;;;;;;5071154;28;20251;-59
2021/06/01 00:25:47;;;;;;;3.47;2.47;;;10.90;99.90;;;;;;5071015;28;20229;-55
2021/06/01 00:28:13;;;;;;;3.73;2.80;;;10.80;99.90;;;;;;5070871;28;20228;-56
2021/06/01 00:30:41;;;;;;;4.40;2.60;;;10.80;99.90;;;;;;5070996;28;20215;-56
2021/06/01 00:33:07;;;;;;;5.03;2.90;;;10.80;99.90;;;;;;5070891;28;20278;-56
2021/06/01 00:35:34;;;;;;;3.73;3.13;;;10.80;99.90;;;;;;5071037;28;20236;-56
2021/06/01 00:38:00;;;;;;;5.20;2.80;;;10.90;99.90;;;;;;5071028;28;20205;-56
2021/06/01 00:40:28;;;;;;;3.00;2.70;;;10.80;99.90;;;;;;5071048;28;20201;-56
2021/06/01 00:42:55;;;;;;;3.77;2.70;;;10.80;99.90;;;;;;5070914;28;20204;-56
2021/06/01 00:45:23;;;;;;;2.93;2.70;;;10.90;99.90;;;;;;5070569;28;20240;-56
2021/06/01 00:47:49;;;;;;;3.17;2.87;;;10.80;99.90;;;;;;5070576;28;20229;-56
2021/06/01 00:50:16;;;;;;;2.60;2.40;;;10.80;99.90;;;;;;5070662;28;20208;-56
2021/06/01 00:52:42;;;;;;;3.07;2.77;;;10.70;99.90;;;;;;5070958;28;20215;-56
2021/06/01 00:55:09;;;;;;;2.87;2.50;;;10.70;99.90;;;;;;5070736;28;20233;-56
2021/06/01 00:57:37;;;;;;;2.97;2.70;;;10.70;99.90;;;;;;5070673;28;20578;-56
2021/06/01 01:00:06;;;;;;;3.40;2.70;;;10.60;99.90;;;;;;5070695;28;20205;-55
2021/06/01 01:02:32;;;;;;;4.17;2.97;;;10.60;99.90;;;;;;5070577;28;20673;-56
2021/06/01 01:04:59;;;;;;;3.70;3.23;;;10.50;99.90;;;;;;5070420;28;20225;-55
2021/06/01 01:07:35;;;;;;;5.80;3.00;;;10.40;99.90;;;;;;5070811;28;20251;-55
2021/06/01 01:10:02;;;;;;;3.63;3.13;;;10.40;99.90;;;;;;5071293;28;20208;-55
2021/06/01 01:12:34;;;;;;;5.47;2.90;;;10.30;99.90;;;;;;5071098;28;20201;-55
2021/06/01 01:15:06;;;;;;;3.60;2.97;;;10.30;99.90;;;;;;5070891;28;20231;-56
2021/06/01 01:17:37;;;;;;;6.97;3.13;;;10.40;99.90;;;;;;5071217;28;20209;-56
2021/06/01 01:20:14;;;;;;;7.80;2.97;;;10.30;99.90;;;;;;5070765;28;20632;-56
2021/06/01 01:22:44;;;;;;;3.63;3.10;;;10.20;99.90;;;;;;5071428;28;20204;-55
2021/06/01 01:25:19;;;;;;;3.83;2.93;;;10.20;99.90;;;;;;5070946;28;20229;-56
2021/06/01 01:28:04;;;;;;;2.93;2.63;;;10.20;99.90;;;;;;5072072;28;20232;-55
2021/06/01 01:30:36;;;;;;;4.77;3.20;;;10.20;99.90;;;;;;5071412;28;20208;-56
2021/06/01 01:33:12;;;;;;;3.60;3.17;;;10.20;99.90;;;;;;5071188;28;20594;-56
2021/06/01 01:35:40;;;;;;;2.90;2.60;;;10.20;99.90;;;;;;5070918;28;20281;-56
2021/06/01 01:38:06;;;;;;;3.43;2.70;;;10.20;99.90;;;;;;5070921;28;20201;-56
2021/06/01 01:40:37;;;;;;;4.40;2.63;;;10.20;99.90;;;;;;5070979;28;20680;-56
2021/06/01 01:43:06;;;;;;;2.77;2.33;;;10.10;99.90;;;;;;5070991;28;20205;-56
2021/06/01 01:45:34;;;;;;;3.43;2.80;;;10.10;99.90;;;;;;5070209;28;20301;-56
2021/06/01 01:50:53;;;;;;;3.60;2.93;;;10.10;99.90;;;;;;5070245;28;20576;-59
2021/06/01 01:53:20;;;;;;;4.67;3.20;;;10.00;99.90;;;;;;5070588;28;20605;-55
2021/06/01 01:55:49;;;;;;;5.17;3.40;;;10.00;99.90;;;;;;5070168;28;20229;-56
2021/06/01 01:58:17;;;;;;;3.97;3.40;;;10.00;99.90;;;;;;5070262;28;20630;-56
2021/06/01 02:00:44;;;;;;;3.50;3.07;;;10.00;99.90;;;;;;5071250;28;20201;-55
2021/06/01 02:03:11;;;;;;;3.70;3.17;;;9.90;99.90;;;;;;5074125;28;20673;-56
2021/06/01 02:05:38;;;;;;;5.50;3.60;;;9.90;99.90;;;;;;5074103;28;20239;-56
2021/06/01 02:08:08;;;;;;;4.53;3.67;;;9.90;99.90;;;;;;5074266;28;20225;-55
2021/06/01 02:10:34;;;;;;;4.17;3.43;;;9.90;99.90;;;;;;5074057;28;20239;-55
2021/06/01 02:13:00;;;;;;;6.40;3.30;;;9.90;99.90;;;;;;5073655;28;20236;-56
2021/06/01 02:15:26;;;;;;;4.40;3.37;;;9.90;99.90;;;;;;5073108;28;20283;-55
2021/06/01 02:17:53;;;;;;;5.87;3.27;;;9.70;99.90;;;;;;5073373;28;20205;-56
2021/06/01 02:20:19;;;;;;;4.40;3.00;;;9.70;99.90;;;;;;5073438;28;20270;-59
2021/06/01 02:25:39;;;;;;;6.07;3.33;;;9.40;99.90;;;;;;5073257;28;20224;-55
2021/06/01 02:28:12;;;;;;;3.80;3.27;;;9.40;99.90;;;;;;5073334;28;20216;-55
2021/06/01 02:30:47;;;;;;;3.90;3.30;;;9.40;99.90;;;;;;5073540;28;20216;-56
2021/06/01 02:33:14;;;;;;;4.40;3.17;;;9.40;99.90;;;;;;5073234;28;20208;-55
2021/06/01 02:35:42;;;;;;;3.50;3.03;;;9.40;99.90;;;;;;5072997;28;20225;-55
2021/06/01 02:38:11;;;;;;;6.97;3.60;;;9.40;99.90;;;;;;5073205;28;20205;-56
2021/06/01 02:40:41;;;;;;;3.67;3.30;;;9.40;99.90;;;;;;5073273;28;20586;-56
2021/06/01 02:43:09;;;;;;;5.43;3.23;;;9.40;99.90;;;;;;5073591;28;20220;-56
2021/06/01 02:45:37;;;;;;;3.87;3.27;;;9.50;99.90;;;;;;5072859;28;20236;-56
2021/06/01 02:48:04;;;;;;;4.50;3.17;;;9.40;99.90;;;;;;5072968;28;20286;-55
2021/06/01 02:50:31;;;;;;;3.50;2.83;;;9.40;99.90;;;;;;5073442;28;20680;-55
2021/06/01 02:52:58;;;;;;;4.87;3.10;;;9.30;99.90;;;;;;5072930;28;20665;-56
2021/06/01 02:55:26;;;;;;;4.57;3.00;;;9.20;99.90;;;;;;5072866;28;20232;-55
2021/06/01 02:57:54;;;;;;;4.83;3.10;;;9.20;99.90;;;;;;5072845;28;20213;-56
2021/06/01 03:00:22;;;;;;;3.23;2.93;;;9.10;99.90;;;;;;5072978;28;20255;-55
2021/06/01 03:02:49;;;;;;;3.80;3.40;;;9.00;99.90;;;;;;5072776;28;20239;-56
2021/06/01 03:05:17;;;;;;;4.23;3.47;;;9.00;99.90;;;;;;5072409;28;20236;-56
2021/06/01 03:07:51;;;;;;;3.70;3.33;;;9.00;99.90;;;;;;5072274;28;20648;-55
2021/06/01 03:10:18;;;;;;;5.50;3.23;;;9.10;99.90;;;;;;5072642;28;20216;-56
2021/06/01 03:12:48;;;;;;;4.37;2.90;;;9.00;99.90;;;;;;5072388;28;20205;-56
2021/06/01 03:15:15;;;;;;;4.27;2.97;;;8.90;99.90;;;;;;5072218;28;20647;-56
2021/06/01 03:17:42;;;;;;;5.00;2.93;;;9.00;99.90;;;;;;5072035;28;20201;-56
2021/06/01 03:20:10;;;;;;;5.23;4.20;;;8.90;99.90;;;;;;5072455;28;20212;-56
2021/06/01 03:22:36;;;;;;;7.70;6.03;;;8.80;99.90;;;;;;5072404;28;20447;-56
2021/06/01 03:25:03;;;;;;;6.57;4.63;;;8.80;99.90;;;;;;5072071;28;20298;-56
2021/06/01 03:27:30;;;;;;;4.50;4.07;;;8.80;99.90;;;;;;5072063;28;20221;-56
2021/06/01 03:29:56;;;;;;;3.77;3.40;;;8.80;99.90;;;;;;5071890;28;20669;-56
2021/06/01 03:32:24;;;;;;;4.47;3.87;;;8.80;99.90;;;;;;5072045;28;20212;-55
2021/06/01 03:34:50;;;;;;;4.67;3.43;;;8.80;99.90;;;;;;5071511;28;20570;-56
2021/06/01 03:37:16;;;;;;;3.50;3.20;;;8.80;99.90;;;;;;5072251;28;20201;-56
2021/06/01 03:39:42;;;;;;;3.60;3.20;;;8.80;99.90;;;;;;5071895;28;20216;-55
2021/06/01 03:42:12;;;;;;;5.90;3.20;;;8.80;99.90;;;;;;5071890;28;20742;-55
2021/06/01 03:44:39;;;;;;;6.77;3.60;;;8.80;99.90;;;;;;5071347;28;20336;-56
2021/06/01 03:47:06;;;;;;;3.80;3.40;;;8.80;99.90;;;;;;5071552;28;20754;-55
2021/06/01 03:49:34;;;;;;;5.20;3.70;;;8.80;99.90;;;;;;5071733;28;20588;-55
2021/06/01 03:52:01;;;;;;;4.60;3.67;;;9.00;99.90;;;;;;5071756;28;20207;-56
2021/06/01 03:54:27;;;;;;;6.37;3.93;;;9.00;99.90;;;;;;5071386;28;20282;-55
2021/06/01 03:56:53;;;;;;;5.20;3.57;;;9.00;99.90;;;;;;5072002;28;20565;-55
2021/06/01 03:59:20;;;;;;;4.50;3.17;;;9.00;99.90;;;;;;5071314;28;20229;-56
2021/06/01 04:01:46;;;;;;;4.10;3.70;;;9.10;99.90;;;;;;5071803;28;20228;-56
2021/06/01 04:04:12;;;;;;;5.00;3.87;;;9.20;99.90;;;;;;5071449;28;20754;-55
2021/06/01 04:06:39;;;;;;;7.03;5.50;;;9.10;99.90;;;;;;5071400;28;20205;-56
2021/06/01 04:09:06;;;;;;;5.10;3.93;;;9.20;99.90;;;;;;5071508;28;20209;-56
2021/06/01 04:11:32;;;;;;;5.37;4.07;;;9.30;99.90;;;;;;5071456;28;20200;-55
2021/06/01 04:13:58;;;;;;;4.03;3.30;;;9.40;99.90;;;;;;5071426;28;20209;-55
2021/06/01 04:16:25;;;;;;;4.73;3.50;;;9.50;99.90;;;;;;5071610;28;20688;-55
2021/06/01 04:18:51;;;;;;;4.13;3.30;;;9.60;99.90;;;;;;5071535;28;20204;-55
2021/06/01 04:21:17;;;;;;;3.97;3.10;;;9.70;99.90;;;;;;5071502;28;20208;-56
2021/06/01 04:23:45;;;;;;;5.50;3.43;;;9.80;99.90;;;;;;5071007;28;20661;-55
2021/06/01 04:26:11;;;;;;;4.43;3.23;;;9.80;99.90;;;;;;5071844;28;20205;-56
2021/06/01 04:28:37;;;;;;;3.40;3.10;;;9.90;99.90;;;;;;5070803;28;20220;-56
2021/06/01 04:31:03;;;;;;;7.50;3.10;;;9.90;99.90;;;;;;5071554;28;20211;-55
2021/06/01 04:33:30;;;;;;;3.17;2.87;;;10.00;99.90;;;;;;5071231;28;20687;-55
2021/06/01 04:35:56;;;;;;;5.50;4.57;;;10.10;99.90;;;;;;5071016;28;20243;-56
2021/06/01 04:38:22;;;;;;;3.33;3.03;;;10.30;99.90;;;;;;5070886;28;20209;-56
2021/06/01 04:40:50;;;;;;;3.60;3.30;;;10.50;99.90;;;;;;5071369;28;20216;-56
2021/06/01 04:43:16;;;;;;;5.30;3.80;;;10.60;99.90;;;;;;5070950;28;20212;-56
2021/06/01 04:45:42;;;;;;;4.87;3.60;;;10.70;99.90;;;;;;5070625;28;20242;-56
2021/06/01 04:48:08;;;;;;;5.37;3.10;;;10.90;99.90;;;;;;5070876;28;20243;-56
2021/06/01 04:50:35;;;;;;;3.50;2.87;;;11.00;99.90;;;;;;5070972;28;20205;-56
2021/06/01 04:53:01;;;;;;;4.87;2.90;;;11.20;99.90;;;;;;5071001;28;20205;-56
2021/06/01 04:55:27;;;;;;;5.80;4.53;;;11.40;99.90;;;;;;5070997;28;20644;-56
2021/06/01 04:57:55;;;;;;;4.57;3.40;;;11.60;99.90;;;;;;5071093;28;20204;-56
2021/06/01 05:00:22;;;;;;;4.13;3.10;;;12.00;99.90;;;;;;5071387;28;20216;-56
2021/06/01 05:02:48;;;;;;;3.33;2.83;;;12.80;99.90;;;;;;5071148;28;20250;-57
2021/06/01 05:05:15;;;;;;;2.93;2.50;;;13.50;99.90;;;;;;5070865;28;20597;-55
2021/06/01 05:07:41;;;;;;;5.67;3.67;;;13.90;99.70;;;;;;5070862;28;20692;-56
2021/06/01 05:10:08;;;;;;;3.43;2.40;;;14.60;98.90;;;;;;5070988;28;20204;-56
2021/06/01 05:12:34;;;;;;;2.97;2.57;;;16.00;96.60;;;;;;5070704;28;20267;-56
2021/06/01 05:15:01;;;;;;;3.10;2.60;;;18.20;92.80;;;;;;5070416;28;20623;-56
2021/06/01 05:17:28;;;;;;;3.30;2.50;;;20.50;85.20;;;;;;5070465;28;20711;-56
2021/06/01 05:19:54;;;;;;;4.82;2.63;;;22.60;74.40;;;;;;5070719;28;20201;-56
2021/06/01 05:22:20;;;;;;;6.18;2.95;;;24.20;65.50;;;;;;5070868;28;20208;-56
2021/06/01 05:24:47;;;;;;;11.48;8.23;;;25.40;59.10;;;;;;5070374;28;20225;-56
2021/06/01 05:27:13;;;;;;;7.57;5.07;;;25.80;56.20;;;;;;5070645;28;20234;-56
2021/06/01 05:29:42;;;;;;;4.30;2.90;;;25.70;56.20;;;;;;5071201;28;20220;-56
2021/06/01 05:32:38;;;;;;;5.18;3.70;;;25.30;55.50;;;;;;5070543;28;20571;-56
2021/06/01 05:35:00;;;;;;;7.50;6.78;;;24.70;56.20;;;;;;5071063;28;20315;-56
2021/06/01 05:37:27;;;;;;;4.13;3.72;;;24.90;56.20;;;;;;5074247;28;20201;-56
2021/06/01 05:39:54;;;;;;;5.05;3.10;;;26.00;54.00;;;;;;5074327;28;20298;-56
2021/06/01 05:42:21;;;;;;;5.30;2.92;;;27.20;51.20;;;;;;5074374;28;20588;-56
2021/06/01 05:44:47;;;;;;;3.78;2.10;;;28.00;49.00;;;;;;5074357;28;20691;-56
2021/06/01 05:47:15;;;;;;;4.80;2.20;;;28.20;48.10;;;;;;5074413;28;20229;-56
2021/06/01 05:49:41;;;;;;;4.63;2.20;;;28.40;47.60;;;;;;5074236;28;20262;-56
2021/06/01 05:52:08;;;;;;;3.28;2.03;;;29.00;46.60;;;;;;5074214;28;20653;-56
2021/06/01 05:54:34;;;;;;;3.78;2.10;;;29.60;45.50;;;;;;5074311;28;20221;-56
2021/06/01 05:57:00;;;;;;;3.78;1.98;;;30.40;44.10;;;;;;5074453;28;20479;-57
2021/06/01 05:59:26;;;;;;;4.50;1.85;;;31.00;42.40;;;;;;5073786;28;20204;-56
2021/06/01 06:01:52;;;;;;;2.35;1.77;;;31.40;42.00;;;;;;5073892;28;20681;-57
2021/06/01 06:04:20;;;;;;;2.53;2.33;;;31.70;40.40;;;;;;5073718;28;20237;-58
2021/06/01 06:06:46;;;;;;;2.03;1.80;;;31.90;39.80;;;;;;5073594;28;20669;-56
2021/06/01 06:09:12;;;;;;;3.35;2.97;;;32.20;38.40;;;;;;5073729;28;20212;-56
2021/06/01 06:11:39;;;;;;;3.15;2.17;;;32.10;38.30;;;;;;5073978;28;20213;-57
2021/06/01 06:14:05;;;;;;;3.00;1.92;;;32.00;38.30;;;;;;5073483;28;20229;-56
2021/06/01 06:16:40;;;;;;;2.13;1.60;;;31.80;38.50;;;;;;5073432;28;20219;-57
2021/06/01 06:19:06;;;;;;;3.80;2.30;;;31.90;37.90;;;;;;5073422;28;20223;-56
2021/06/01 06:21:34;;;;;;;2.58;2.03;;;32.10;37.80;;;;;;5073776;28;20209;-56
2021/06/01 06:24:00;;;;;;;2.90;1.85;;;32.40;37.60;;;;;;5073588;28;20209;-56
2021/06/01 06:26:26;;;;;;;2.00;1.70;;;33.00;36.40;;;;;;5073902;28;20587;-56
2021/06/01 06:28:52;;;;;;;2.63;1.60;;;33.80;35.80;;;;;;5073576;28;20228;-56
2021/06/01 06:31:19;;;;;;;4.32;1.83;;;34.50;35.10;;;;;;5073420;28;20205;-57
2021/06/01 06:33:45;;;;;;;1.80;1.58;;;34.60;34.60;;;;;;5073211;28;20258;-56
2021/06/01 06:36:12;;;;;;;2.03;1.73;;;34.60;34.90;;;;;;5073837;28;20201;-56
2021/06/01 06:38:40;;;;;;;2.03;1.70;;;34.90;34.60;;;;;;5073391;28;20586;-56
2021/06/01 06:41:12;;;;;;;2.20;1.60;;;35.40;34.10;;;;;;5073498;28;20213;-57
2021/06/01 06:43:39;;;;;;;1.77;1.60;;;36.00;32.90;;;;;;5073445;28;20220;-56
2021/06/01 06:46:08;;;;;;;2.97;1.83;;;36.10;32.80;;;;;;5072477;28;20255;-56
2021/06/01 06:48:35;;;;;;;2.63;1.75;;;35.90;33.30;;;;;;5072841;28;20648;-56
2021/06/01 06:51:01;;;;;;;3.38;1.50;;;36.20;32.80;;;;;;5073469;28;20247;-58
2021/06/01 06:53:27;;;;;;;4.53;1.88;;;36.20;32.40;;;;;;5073101;28;20295;-57
2021/06/01 06:55:55;;;;;;;1.70;1.30;;;36.20;32.40;;;;;;5073115;28;20229;-57
2021/06/01 06:58:22;;;;;;;2.00;1.50;;;36.40;32.40;;;;;;5073044;28;20208;-58
2021/06/01 07:00:48;;;;;;;2.50;1.75;;;36.40;31.70;;;;;;5073121;28;20200;-58
2021/06/01 07:03:14;;;;;;;4.63;1.88;;;36.30;31.70;;;;;;5073175;28;20208;-57
2021/06/01 07:05:40;;;;;;;3.05;1.52;;;36.40;31.80;;;;;;5072834;28;20231;-58
2021/06/01 07:08:07;;;;;;;1.88;1.55;;;37.30;31.00;;;;;;5072596;28;20600;-58
2021/06/01 07:10:33;;;;;;;2.03;1.40;;;37.80;30.10;;;;;;5072598;28;20220;-58
2021/06/01 07:13:10;;;;;;;5.45;1.63;;;38.70;29.40;;;;;;5072437;28;20677;-58
2021/06/01 07:15:42;;;;;;;3.17;1.70;;;38.80;29.30;;;;;;5072442;28;20233;-58
2021/06/01 07:18:09;;;;;;;1.65;1.40;;;39.00;29.00;;;;;;5072137;28;20699;-58
2021/06/01 07:20:35;;;;;;;2.28;1.50;;;38.90;28.90;;;;;;5072343;28;20231;-57
2021/06/01 07:23:02;;;;;;;1.42;1.33;;;39.20;28.50;;;;;;5072297;28;20205;-58
2021/06/01 07:25:28;;;;;;;1.73;1.40;;;39.30;28.80;;;;;;5071750;28;20286;-58
2021/06/01 07:27:55;;;;;;;1.92;1.40;;;39.60;28.40;;;;;;5071821;28;20221;-58
2021/06/01 07:30:23;;;;;;;1.95;1.50;;;40.00;28.10;;;;;;5072184;28;20208;-58
2021/06/01 07:32:49;;;;;;;2.38;1.52;;;40.20;27.80;;;;;;5072248;28;20205;-58
2021/06/01 07:35:16;;;;;;;2.53;1.35;;;39.60;28.20;;;;;;5072368;28;20601;-58
2021/06/01 07:37:43;;;;;;;3.03;1.58;;;39.80;28.10;;;;;;5072056;28;20204;-59
2021/06/01 07:40:09;;;;;;;2.83;1.80;;;40.30;28.00;;;;;;5072287;28;20315;-59
2021/06/01 07:42:35;;;;;;;2.90;1.45;;;41.00;27.40;;;;;;5071993;28;20209;-58
2021/06/01 07:45:02;;;;;;;4.10;1.92;;;41.60;26.80;;;;;;5071801;28;20598;-58
2021/06/01 07:47:30;;;;;;;1.65;1.50;;;42.00;26.80;;;;;;5071812;28;20228;-58
2021/06/01 07:49:56;;;;;;;3.63;1.55;;;42.50;26.00;;;;;;5071765;28;20209;-58
2021/06/01 07:52:22;;;;;;;3.58;1.70;;;43.10;25.30;;;;;;5071765;28;20684;-59
2021/06/01 07:54:49;;;;;;;1.60;1.35;;;42.80;25.60;;;;;;5071487;28;20227;-58
2021/06/01 07:57:16;;;;;;;3.50;1.65;;;42.00;26.10;;;;;;5071495;28;20699;-58
2021/06/01 07:59:42;;;;;;;2.95;1.60;;;40.90;26.90;;;;;;5070668;28;20204;-58
2021/06/01 08:02:08;;;;;;;1.67;1.40;;;40.40;26.80;;;;;;5071775;28;20205;-58
2021/06/01 08:04:36;;;;;;;2.67;1.80;;;39.70;27.10;;;;;;5071454;28;20474;-57
2021/06/01 08:07:06;;;;;;;2.65;2.00;;;38.70;27.40;;;;;;5071493;28;20209;-58
2021/06/01 08:09:32;;;;;;;2.47;1.45;;;37.80;28.30;;;;;;5071417;28;20201;-58
2021/06/01 08:11:58;;;;;;;2.60;1.55;;;37.70;28.00;;;;;;5071597;28;20213;-59
2021/06/01 08:14:24;;;;;;;2.28;1.90;;;37.20;28.50;;;;;;5071417;28;20274;-58
2021/06/01 08:16:51;;;;;;;2.60;1.70;;;36.70;28.60;;;;;;5071656;28;20201;-57
2021/06/01 08:19:20;;;;;;;3.35;1.90;;;36.30;29.10;;;;;;5071646;28;20375;-57
2021/06/01 08:21:54;;;;;;;2.25;1.80;;;36.70;29.20;;;;;;5071819;28;20261;-58
2021/06/01 08:24:21;;;;;;;2.03;1.83;;;36.50;29.00;;;;;;5071933;28;20232;-58
2021/06/01 08:26:47;;;;;;;3.42;1.75;;;35.90;29.40;;;;;;5071941;28;20201;-57
2021/06/01 08:29:14;;;;;;;4.50;1.85;;;35.80;29.70;;;;;;5071672;28;20225;-58
2021/06/01 08:31:41;;;;;;;4.20;1.70;;;36.30;29.20;;;;;;5071846;28;20205;-58
2021/06/01 08:34:08;;;;;;;4.85;2.08;;;37.00;28.40;;;;;;5071396;28;20228;-59
2021/06/01 08:36:34;;;;;;;1.70;1.50;;;37.40;28.50;;;;;;5071658;28;20236;-57
2021/06/01 08:39:03;;;;;;;2.75;1.45;;;37.40;27.50;;;;;;5071224;28;20196;-58
2021/06/01 08:41:29;;;;;;;2.55;1.67;;;36.70;28.00;;;;;;5070942;28;20576;-58
2021/06/01 08:44:00;;;;;;;4.55;1.70;;;35.20;29.20;;;;;;5070697;28;20560;-56
2021/06/01 08:46:27;;;;;;;4.43;2.10;;;33.40;30.60;;;;;;5071355;28;20205;-56
2021/06/01 08:48:54;;;;;;;3.42;1.98;;;31.40;32.40;;;;;;5070723;28;20663;-56
2021/06/01 08:51:21;;;;;;;1.50;1.40;;;29.90;33.30;;;;;;5071019;28;20208;-57
2021/06/01 08:53:48;;;;;;;2.15;1.42;;;28.70;34.40;;;;;;5070880;28;20201;-57
2021/06/01 08:56:16;;;;;;;2.08;1.58;;;27.80;35.70;;;;;;5071175;28;20288;-56
2021/06/01 08:58:43;;;;;;;2.03;1.58;;;26.80;37.30;;;;;;5070851;28;20205;-57
2021/06/01 09:01:10;;;;;;;1.85;1.73;;;25.80;38.90;;;;;;5070891;28;20200;-57
2021/06/01 09:03:41;;;;;;;3.03;1.85;;;25.20;40.00;;;;;;5070832;28;20201;-57
2021/06/01 09:06:16;;;;;;;2.33;1.95;;;24.80;40.70;;;;;;5071004;28;20719;-57
2021/06/01 09:08:57;;;;;;;3.47;1.83;;;24.20;40.50;;;;;;5071394;28;20322;-57
2021/06/01 09:11:38;;;;;;;3.47;1.75;;;23.60;42.10;;;;;;5074727;28;20212;-60
2021/06/01 09:14:24;;;;;;;2.42;1.88;;;23.30;43.00;;;;;;5074640;28;20243;-57
2021/06/01 09:22:30;;;;;;;2.55;1.77;;;23.20;42.80;;;;;;5075151;28;20208;-57
2021/06/01 09:25:01;;;;;;;2.95;1.90;;;23.10;43.10;;;;;;5075191;28;20505;-58
2021/06/01 09:27:30;;;;;;;3.28;1.90;;;22.90;43.30;;;;;;5075354;28;20231;-57
2021/06/01 09:29:56;;;;;;;4.18;1.70;;;22.80;43.80;;;;;;5075210;28;20201;-57
2021/06/01 09:32:23;;;;;;;3.00;1.70;;;22.90;43.80;;;;;;5074994;28;20208;-57
2021/06/01 09:34:50;;;;;;;3.83;2.05;;;22.90;43.90;;;;;;5074376;28;20737;-57
2021/06/01 09:37:22;;;;;;;2.15;1.70;;;22.90;43.50;;;;;;5075080;28;20201;-57
2021/06/01 09:40:17;;;;;;;1.58;1.48;;;22.70;43.40;;;;;;5074693;28;20208;-57
2021/06/01 09:42:47;;;;;;;2.42;1.77;;;22.60;44.30;;;;;;5075195;28;20267;-58
2021/06/01 09:45:16;;;;;;;3.42;1.77;;;22.50;43.90;;;;;;5074417;28;20237;-57
2021/06/01 09:47:47;;;;;;;2.65;1.88;;;22.40;43.50;;;;;;5074636;28;20231;-57
2021/06/01 09:50:22;;;;;;;2.00;1.67;;;22.10;44.10;;;;;;5075201;28;20208;-58
2021/06/01 09:52:52;;;;;;;2.92;1.70;;;22.20;44.20;;;;;;5074463;28;20625;-58
2021/06/01 09:55:26;;;;;;;1.83;1.70;;;22.20;44.20;;;;;;5074049;28;20220;-57
2021/06/01 09:57:54;;;;;;;3.63;1.90;;;22.30;44.30;;;;;;5074126;28;20209;-57
2021/06/01 10:00:22;;;;;;;2.53;1.67;;;22.30;45.00;;;;;;5074772;28;20262;-57
2021/06/01 10:02:50;;;;;;;2.47;1.70;;;22.20;44.20;;;;;;5074452;28;20205;-56
2021/06/01 10:05:19;;;;;;;2.58;1.70;;;22.30;43.60;;;;;;5074097;28;20221;-57
2021/06/01 10:07:47;;;;;;;4.18;1.80;;;22.50;43.50;;;;;;5073721;28;20231;-57
2021/06/01 10:10:16;;;;;;;2.35;1.55;;;22.70;43.30;;;;;;5073710;28;20204;-57
2021/06/01 10:12:44;;;;;;;1.77;1.52;;;22.90;42.70;;;;;;5074077;28;20216;-57
2021/06/01 10:15:14;;;;;;;3.25;2.05;;;23.00;42.30;;;;;;5073588;28;20778;-57
2021/06/01 10:17:41;;;;;;;3.55;1.67;;;23.20;42.40;;;;;;5073709;28;20258;-56
2021/06/01 10:20:08;;;;;;;3.33;1.70;;;23.40;42.10;;;;;;5073655;28;20212;-57
2021/06/01 10:22:36;;;;;;;5.10;2.17;;;23.50;42.10;;;;;;5072486;28;20209;-56
2021/06/01 10:25:03;;;;;;;2.50;1.70;;;23.60;42.30;;;;;;5073114;28;20708;-57
2021/06/01 10:27:29;;;;;;;2.63;1.85;;;23.60;41.70;;;;;;5073602;28;20220;-57
2021/06/01 10:29:56;;;;;;;6.22;1.88;;;23.60;41.90;;;;;;5073357;28;20651;-56
2021/06/01 10:32:25;;;;;;;3.40;1.70;;;23.60;41.80;;;;;;5073356;28;20255;-57
2021/06/01 10:34:53;;;;;;;3.83;1.63;;;23.40;42.20;;;;;;5073196;28;20221;-57
2021/06/01 10:43:40;;;;;;;2.65;1.73;;;23.60;42.20;;;;;;5073133;28;20200;-57
2021/06/01 10:52:12;;;;;;;4.45;1.50;;;23.90;42.00;;;;;;5129962;27;21028;-58
2021/06/01 10:55:05;;;;;;;1.70;1.60;;;24.10;42.20;;;;;;5129730;27;20219;-59
2021/06/01 10:57:55;;;;;;;3.70;1.90;;;24.00;42.20;;;;;;5129920;27;20199;-58
2021/06/01 11:03:09;;;;;;;3.15;2.00;;;24.20;42.40;;;;;;5130704;28;20678;-57
2021/06/01 11:06:08;;;;;;;1.98;1.52;;;24.20;42.80;;;;;;5130353;27;20229;-58
2021/06/01 11:08:42;;;;;;;5.20;1.80;;;24.30;41.70;;;;;;5130025;27;20540;-58
2021/06/01 11:11:32;;;;;;;2.97;1.85;;;24.30;41.50;;;;;;5129559;27;20227;-58
2021/06/01 11:13:59;;;;;;;2.67;1.77;;;24.20;41.90;;;;;;5129781;27;20223;-58
2021/06/01 11:16:26;;;;;;;1.52;1.40;;;23.90;42.80;;;;;;5129592;27;20579;-58
2021/06/01 11:18:58;;;;;;;3.90;1.77;;;23.90;43.10;;;;;;5129775;27;20214;-58
2021/06/01 11:21:37;;;;;;;2.17;1.60;;;24.10;42.30;;;;;;5129932;27;20203;-58
2021/06/01 11:32:54;;;;;;;4.95;1.80;;;24.70;41.60;;;;;;5128986;28;20296;-56
2021/06/01 11:35:26;;;;;;;2.10;1.70;;;24.60;41.60;;;;;;5128715;27;20227;-56
2021/06/01 11:37:59;;;;;;;3.47;1.83;;;24.50;42.40;;;;;;5129218;27;20211;-57
2021/06/01 11:40:32;;;;;;;3.08;1.88;;;24.40;42.80;;;;;;5128769;27;20199;-57
2021/06/01 11:43:06;;;;;;;2.28;1.73;;;24.50;42.40;;;;;;5128632;27;20204;-57
2021/06/01 11:45:49;;;;;;;1.90;1.60;;;24.50;42.40;;;;;;5128412;27;20729;-57
2021/06/01 11:48:29;;;;;;;2.42;1.40;;;24.50;40.90;;;;;;5128525;27;20606;-57
2021/06/01 11:51:13;;;;;;;3.38;1.88;;;24.50;40.80;;;;;;5128392;27;20309;-57
2021/06/01 11:53:51;;;;;;;3.70;1.60;;;24.60;40.90;;;;;;5128190;27;20198;-57
2021/06/01 11:56:38;;;;;;;2.72;1.67;;;24.50;41.40;;;;;;5128468;27;20214;-57
2021/06/01 12:02:05;;;;;;;2.83;1.50;;;24.70;42.30;;;;;;5123264;28;20194;-57
2021/06/01 12:04:45;;;;;;;3.67;1.55;;;24.90;41.30;;;;;;5114454;27;20226;-57
2021/06/01 12:12:53;;;;;;;2.00;1.80;;;24.90;40.80;;;;;;5114489;28;20682;-57
2021/06/01 12:18:16;;;;;;;1.55;1.40;;;24.80;40.80;;;;;;5114352;28;20202;-57
2021/06/01 12:20:42;;;;;;;2.70;1.77;;;24.80;40.40;;;;;;5115364;28;20227;-57
2021/06/01 12:23:26;;;;;;;2.85;1.45;;;24.90;40.40;;;;;;5114471;28;20243;-57
2021/06/01 12:26:12;;;;;;;2.42;1.73;;;25.00;40.90;;;;;;5113854;28;20610;-58
2021/06/01 12:31:55;;;;;;;3.53;1.70;;;25.00;39.90;;;;;;5108309;27;20308;-57
2021/06/01 12:34:28;;;;;;;2.92;1.80;;;25.00;40.20;;;;;;5114178;28;20223;-57
2021/06/01 12:42:54;;;;;;;2.75;1.73;;;25.20;40.80;;;;;;5113976;28;20278;-57
2021/06/01 12:45:36;;;;;;;1.73;1.33;;;25.20;41.00;;;;;;5113898;27;20284;-57
2021/06/01 13:08:23;;;;;;;3.40;1.60;;;25.20;40.20;;;;;;5113575;28;20570;-57
2021/06/01 13:19:25;;;;;;;3.17;1.60;;;25.40;39.70;;;;;;5113409;28;20762;-57
2021/06/01 13:21:56;;;;;;;3.17;1.50;;;25.40;39.70;;;;;;5113170;27;20204;-56
2021/06/01 13:30:38;;;;;;;2.70;1.70;;;25.50;39.90;;;;;;5113137;28;20233;-56
2021/06/01 13:38:43;;;;;;;4.10;1.70;;;25.60;39.00;;;;;;5114068;28;20211;-57
2021/06/01 13:46:43;;;;;;;2.28;1.50;;;25.70;38.80;;;;;;5096104;28;20569;-58
2021/06/01 13:49:14;;;;;;;2.65;1.38;;;25.90;38.10;;;;;;5112288;28;20207;-57
2021/06/01 13:57:14;;;;;;;4.00;1.80;;;26.00;38.90;;;;;;5112170;28;20203;-58
2021/06/01 13:59:45;;;;;;;2.42;1.60;;;26.00;39.20;;;;;;5112195;28;20298;-57
2021/06/01 14:02:39;;;;;;;3.67;1.52;;;26.10;39.00;;;;;;5112492;28;20211;-57
2021/06/01 14:11:24;;;;;;;5.00;1.52;;;25.90;39.30;;;;;;5111610;28;20230;-57
2021/06/01 14:19:30;;;;;;;2.20;1.60;;;26.20;39.10;;;;;;5111642;28;20203;-57
2021/06/01 14:30:29;;;;;;;3.83;1.42;;;26.00;38.80;;;;;;5068378;28;20760;-57
2021/06/01 14:35:51;;;;;;;1.75;1.65;;;26.00;39.60;;;;;;5093317;28;20303;-58
2021/06/01 14:38:26;;;;;;;4.00;1.52;;;25.80;39.90;;;;;;5111584;28;20203;-57
2021/06/01 14:55:08;;;;;;;2.53;1.80;;;26.50;38.60;;;;;;5111856;28;20254;-57
2021/06/01 15:31:33;;;;;;;2.55;1.67;;;26.10;41.00;;;;;;5129404;28;20600;-56
2021/06/01 15:47:53;;;;;;;4.50;3.15;;;26.40;40.30;;;;;;5128579;28;20677;-56
2021/06/01 15:50:26;;;;;;;4.05;1.75;;;26.40;40.30;;;;;;5128857;28;20219;-56
2021/06/01 16:11:14;;;;;;;1.98;1.50;;;26.30;40.30;;;;;;5128920;27;20253;-56
2021/06/01 16:29:49;;;;;;;2.85;1.60;;;25.80;41.10;;;;;;5114056;28;20256;-57
2021/06/01 16:32:39;;;;;;;4.68;1.80;;;25.60;41.40;;;;;;5114378;28;20203;-57
2021/06/01 16:43:31;;;;;;;1.90;1.52;;;25.20;42.20;;;;;;5113876;28;20325;-57
2021/06/01 17:05:16;;;;;;;3.22;2.00;;;25.00;42.20;;;;;;5113087;28;20295;-57
2021/06/01 17:08:03;;;;;;;3.00;1.73;;;24.90;42.50;;;;;;5113558;28;20210;-57
2021/06/01 17:13:17;;;;;;;1.80;1.67;;;24.80;41.50;;;;;;5113187;28;20328;-57
2021/06/01 17:15:46;;;;;;;5.97;1.85;;;24.70;41.80;;;;;;5112953;28;20236;-57